Stations météo

réclame
Mon MeteoGroup
Arcen aws, Pays-Bas (6391): Température de l'air & dewpoint: 14.09.2020 19:00:00 - 20.09.2020 19:00:00 (CEST)Arcen aws, Pays-Bas (6391): Température de l'air 5cm: 14.09.2020 19:00:00 - 20.09.2020 19:00:00 (CEST)Arcen aws, Pays-Bas (6391): Vitesse du vent & gusts: 14.09.2020 19:00:00 - 20.09.2020 19:00:00 (CEST)Arcen aws, Pays-Bas (6391): Direction du vent: 14.09.2020 19:00:00 - 20.09.2020 19:00:00 (CEST)Arcen aws, Pays-Bas (6391): Quantités de précipitations: 14.09.2020 19:00:00 - 20.09.2020 19:00:00 (CEST)
Date & Time tt [°C] td [°C] tt 5cm [°C] ff [km/h] ff [knt] fx [km/h] fx [knt] dd rr [mm]
20.09.2020 19:00:00 22,3 3,8 21,0 11 6 22 12 NNE 0,0
20.09.2020 18:00:00 24,4 3,6 24,6 14 8 22 12 NNE 0,0
20.09.2020 17:00:00 25,0 3,7 24,4 11 6 22 12 NNE 0,0
20.09.2020 16:00:00 26,3 3,5 27,4 11 6 22 12 NE 0,0
20.09.2020 15:00:00 25,0 5,0 26,6 11 6 22 12 ENE 0,0
20.09.2020 14:00:00 24,3 5,7 25,7 11 6 22 12 NE 0,0
20.09.2020 13:00:00 22,1 5,8 23,3 7 4 14 8 NE 0,0
20.09.2020 12:00:00 19,8 5,5 20,4 7 4 14 8 ENE 0,0
20.09.2020 11:00:00 16,8 5,6 16,4 7 4 18 10 ENE 0,0
20.09.2020 10:00:00 14,2 5,2 13,0 7 4 14 8 ENE 0,0
20.09.2020 09:00:00 11,2 5,3 9,9 7 4 14 8 NNE 0,0
20.09.2020 08:00:00 7,4 5,0 5,2 4 2 11 6 NNE 0,0
20.09.2020 07:00:00 6,4 4,2 4,6 7 4 7 4 NNE 0,0
20.09.2020 06:00:00 8,2 5,4 5,7 4 2 11 6 ENE 0,0
20.09.2020 05:00:00 8,7 5,4 6,3 7 4 11 6 NNE 0,0
20.09.2020 04:00:00 9,1 6,2 7,3 4 2 7 4 N 0,0
20.09.2020 03:00:00 10,4 6,5 8,7 7 4 7 4 NNE 0,0
20.09.2020 02:00:00 12,3 6,7 10,3 7 4 7 4 NNE 0,0
20.09.2020 01:00:00 13,5 6,7 11,5 4 2 11 6 NNE 0,0
20.09.2020 00:00:00 14,7 6,7 12,5 7 4 14 8 NE 0,0
19.09.2020 23:00:00 16,1 6,5 13,9 7 4 14 8 NE 0,0
19.09.2020 22:00:00 17,1 5,9 14,6 7 4 14 8 NE 0,0
19.09.2020 21:00:00 17,9 6,4 15,9 7 4 14 8 NNE 0,0
19.09.2020 20:00:00 19,9 7,3 17,7 7 4 11 6 NE 0,0
19.09.2020 19:00:00 23,1 6,9 21,9 7 4 18 10 NE 0,0
19.09.2020 18:00:00 25,3 7,1 25,4 11 6 22 12 NE 0,0
19.09.2020 17:00:00 26,1 6,2 27,0 11 6 22 12 NE 0,0
19.09.2020 16:00:00 25,8 5,8 26,9 14 8 22 12 E 0,0
19.09.2020 15:00:00 25,4 6,1 25,9 14 8 25 14 E 0,0
19.09.2020 14:00:00 24,9 7,1 25,8 11 6 22 12 E 0,0
19.09.2020 13:00:00 22,7 6,4 24,1 14 8 22 12 ESE 0,0
19.09.2020 12:00:00 20,9 6,8 21,2 14 8 25 14 E 0,0
19.09.2020 11:00:00 18,6 6,3 18,4 14 8 22 12 E 0,0
19.09.2020 10:00:00 16,7 6,4 15,1 11 6 22 12 E 0,0
19.09.2020 09:00:00 13,6 5,9 12,7 11 6 18 10 ENE 0,0
19.09.2020 08:00:00 11,2 5,4 9,7 11 6 14 8 ENE 0,0
19.09.2020 07:00:00 10,7 5,3 9,5 7 4 18 10 ENE 0,0
19.09.2020 06:00:00 11,1 5,5 9,8 11 6 18 10 ENE 0,0
19.09.2020 05:00:00 11,5 5,6 10,3 11 6 22 12 ENE 0,0
19.09.2020 04:00:00 12,0 5,7 10,7 11 6 18 10 ENE 0,0
19.09.2020 03:00:00 12,6 5,8 11,0 11 6 18 10 ENE 0,0
19.09.2020 02:00:00 12,4 6,0 9,9 7 4 14 8 ENE 0,0
19.09.2020 01:00:00 12,8 6,0 10,5 7 4 14 8 ENE 0,0
19.09.2020 00:00:00 14,1 6,2 12,4 11 6 18 10 ENE 0,0
18.09.2020 23:00:00 14,4 6,2 12,1 7 4 18 10 ENE 0,0
18.09.2020 22:00:00 15,9 6,1 14,0 11 6 18 10 NE 0,0
18.09.2020 21:00:00 17,1 6,0 15,6 11 6 18 10 NE 0,0
18.09.2020 20:00:00 18,3 6,0 17,0 11 6 18 10 NE 0,0
18.09.2020 19:00:00 20,5 6,7 19,6 11 6 29 16 ENE 0,0
18.09.2020 18:00:00 22,8 6,7 23,1 14 8 25 14 ENE 0,0
18.09.2020 17:00:00 23,6 7,6 23,6 18 10 29 16 NE 0,0
18.09.2020 16:00:00 23,2 7,9 24,0 14 8 32 18 ENE 0,0
18.09.2020 15:00:00 22,8 8,0 24,0 18 10 29 16 ENE 0,0
18.09.2020 14:00:00 21,8 7,4 22,6 14 8 29 16 NE 0,0
18.09.2020 13:00:00 20,7 7,2 21,5 14 8 25 14 NE 0,0
18.09.2020 12:00:00 19,0 6,6 19,3 14 8 29 16 ENE 0,0
18.09.2020 11:00:00 16,2 6,1 15,9 14 8 25 14 ENE 0,0
18.09.2020 10:00:00 14,5 5,8 12,9 14 8 25 14 E 0,0
18.09.2020 09:00:00 11,7 5,3 10,8 11 6 22 12 ENE 0,0
18.09.2020 08:00:00 9,4 4,6 7,9 11 6 18 10 ENE 0,0
18.09.2020 07:00:00 8,1 4,2 5,8 11 6 18 10 NE 0,0
18.09.2020 06:00:00 8,1 4,1 6,2 7 4 14 8 NE 0,0
18.09.2020 05:00:00 8,9 4,4 7,1 7 4 14 8 ENE 0,0
18.09.2020 04:00:00 10,0 4,4 8,7 11 6 18 10 NE 0,0
18.09.2020 03:00:00 11,4 4,5 10,3 11 6 22 12 ENE 0,0
18.09.2020 02:00:00 11,7 4,4 10,5 11 6 22 12 NE 0,0
18.09.2020 01:00:00 12,4 4,6 11,3 11 6 18 10 ENE 0,0
18.09.2020 00:00:00 12,8 4,8 11,6 14 8 22 12 ENE 0,0
17.09.2020 23:00:00 13,6 4,7 12,4 11 6 25 14 NE 0,0
17.09.2020 22:00:00 14,3 5,0 12,8 14 8 25 14 NE 0,0
17.09.2020 21:00:00 15,2 4,8 13,7 14 8 25 14 NE 0,0
17.09.2020 20:00:00 16,1 5,0 14,8 14 8 22 12 NNE 0,0
17.09.2020 19:00:00 17,6 4,9 16,8 11 6 29 16 NE 0,0
17.09.2020 18:00:00 19,3 4,3 19,7 18 10 32 18 NE 0,0
17.09.2020 17:00:00 20,3 3,2 21,1 18 10 29 16 E 0,0
17.09.2020 16:00:00 20,7 3,2 20,7 18 10 36 19 NE 0,0
17.09.2020 15:00:00 20,6 5,0 22,2 18 10 32 18 ENE 0,0
17.09.2020 14:00:00 20,3 5,9 21,4 18 10 36 19 ENE 0,0
17.09.2020 13:00:00 18,8 7,1 19,1 22 12 29 16 E 0,0
17.09.2020 12:00:00 17,4 8,5 18,5 14 8 29 16 NE 0,0
17.09.2020 11:00:00 15,6 9,8 15,2 14 8 25 14 ENE 0,0
17.09.2020 10:00:00 14,3 10,2 13,3 14 8 25 14 ENE 0,0
17.09.2020 09:00:00 11,8 9,9 11,1 11 6 14 8 NNE 0,0
17.09.2020 08:00:00 9,4 8,8 8,5 7 4 14 8 NNE 0,0
17.09.2020 07:00:00 8,2 7,7 7,0 7 4 11 6 N 0,0
17.09.2020 06:00:00 9,4 8,3 7,9 7 4 11 6 N 0,0
17.09.2020 05:00:00 10,8 9,2 9,6 7 4 14 8 N 0,0
17.09.2020 04:00:00 12,0 9,9 11,0 7 4 18 10 N 0,0
17.09.2020 03:00:00 12,9 10,4 12,0 11 6 22 12 NNE 0,0
17.09.2020 02:00:00 14,1 10,7 13,3 11 6 25 14 N 0,0
17.09.2020 01:00:00 15,7 11,3 15,1 18 10 32 18 N 0,0
17.09.2020 00:00:00 16,6 12,6 16,0 14 8 29 16 N 0,0
16.09.2020 23:00:00 16,8 14,0 16,0 11 6 29 16 N 0,0
16.09.2020 22:00:00 18,1 14,2 17,3 18 10 29 16 NNE 0,0
16.09.2020 21:00:00 19,9 14,4 19,0 18 10 25 14 N 0,0
16.09.2020 20:00:00 21,0 13,2 20,0 11 6 25 14 N 0,0
16.09.2020 19:00:00 22,7 12,8 22,2 14 8 29 16 N 0,0
16.09.2020 18:00:00 24,2 13,3 23,8 18 10 32 18 N 0,0
16.09.2020 17:00:00 26,0 14,6 27,0 22 12 40 21 N 0,0
16.09.2020 16:00:00 25,5 15,8 26,3 18 10 32 18 N 0,0
16.09.2020 15:00:00 26,7 15,3 28,2 14 8 29 16 N 0,0
16.09.2020 14:00:00 25,6 16,3 27,4 14 8 25 14 N 0,0
16.09.2020 13:00:00 25,1 16,9 25,1 11 6 18 10 N 0,0
16.09.2020 12:00:00 21,7 17,2 22,0 4 2 14 8 NNW 0,0
16.09.2020 11:00:00 21,1 16,8 21,4 4 2 11 6 W 0,0
16.09.2020 10:00:00 19,5 16,1 18,9 4 2 7 4 WSW 0,0
16.09.2020 09:00:00 18,5 15,2 16,9 4 2 7 4 WSW 0,0
16.09.2020 08:00:00 15,8 14,7 13,4 4 2 7 4 SW 0,0
16.09.2020 07:00:00 15,0 14,2 13,1 4 2 4 2 SSW 0,0
16.09.2020 06:00:00 15,8 14,3 13,7 4 2 4 2 SW 0,0
16.09.2020 05:00:00 15,8 14,4 13,9 0 0 4 2 N 0,0
16.09.2020 04:00:00 18,1 16,0 15,0 0 0 7 4 N 0,0
16.09.2020 03:00:00 17,3 15,2 14,9 4 2 4 2 WSW 0,0
16.09.2020 02:00:00 17,5 15,9 15,6 0 0 4 2 N 0,0
16.09.2020 01:00:00 18,5 15,5 16,2 4 2 4 2 W 0,0
16.09.2020 00:00:00 18,7 15,7 16,6 0 0 4 2 N 0,0
15.09.2020 23:00:00 19,0 16,0 16,8 0 0 4 2 N 0,0
15.09.2020 22:00:00 19,9 15,7 17,6 0 0 4 2 N 0,0
15.09.2020 21:00:00 21,1 16,0 18,8 0 0 4 2 N 0,0
15.09.2020 20:00:00 23,7 16,1 21,2 0 0 4 2 N 0,0
15.09.2020 19:00:00 27,0 16,5 25,3 4 2 7 4 E 0,0
15.09.2020 18:00:00 31,5 14,8 31,9 0 0 7 4 N 0,0
15.09.2020 17:00:00 32,9 11,9 33,6 4 2 14 8 E 0,0
15.09.2020 16:00:00 33,3 11,8 34,6 0 0 11 6 N 0,0
15.09.2020 15:00:00 33,1 11,7 34,2 4 2 14 8 ESE 0,0
15.09.2020 14:00:00 31,9 12,8 33,4 7 4 18 10 ESE 0,0
15.09.2020 13:00:00 30,9 13,8 31,6 4 2 7 4 SE 0,0
15.09.2020 12:00:00 28,5 14,5 29,0 4 2 11 6 E 0,0
15.09.2020 11:00:00 24,6 15,9 23,7 0 0 4 2 N 0,0
15.09.2020 10:00:00 22,1 14,7 19,5 4 2 11 6 S 0,0
15.09.2020 09:00:00 19,0 14,1 16,4 4 2 7 4 SE 0,0
15.09.2020 08:00:00 12,9 11,8 11,0 4 2 7 4 SE 0,0
15.09.2020 07:00:00 12,6 11,9 10,7 4 2 4 2 ESE 0,0
15.09.2020 06:00:00 13,0 12,3 11,2 0 0 7 4 N 0,0
15.09.2020 05:00:00 13,5 13,0 11,6 0 0 4 2 N 0,0
15.09.2020 04:00:00 14,5 13,2 12,3 4 2 7 4 S 0,0
15.09.2020 03:00:00 14,7 13,5 12,8 0 0 7 4 N 0,0
15.09.2020 02:00:00 15,7 13,8 13,3 4 2 7 4 SE 0,0
15.09.2020 01:00:00 16,4 13,7 13,6 4 2 11 6 SE 0,0
15.09.2020 00:00:00 15,8 13,5 13,9 4 2 7 4 ESE 0,0
14.09.2020 23:00:00 16,4 13,8 14,3 0 0 4 2 N 0,0
14.09.2020 22:00:00 17,3 14,1 15,4 4 2 4 2 NNE 0,0
14.09.2020 21:00:00 19,1 15,5 17,1 4 2 4 2 NNE 0,0
14.09.2020 20:00:00 22,3 15,2 20,0 0 0 7 4 N 0,0
14.09.2020 19:00:00 26,2 15,2 24,5 4 2 18 10 SE 0,0

tt = Température de l'air
td = dewpoint
tt 5cm = Température de l'air 5cm
ff = Vitesse du vent
fx = gusts
dd = Direction du vent
rr = Quantités de précipitations

stations d'obs. à proximité